sensor_id;sensor_type;location;lat;lon;timestamp;P1;durP1;ratioP1;P2;durP2;ratioP2
12383;SDS011;6256;63.808;20.336;2023-04-25T00:02:18;0.80;;;0.80;;
12383;SDS011;6256;63.808;20.336;2023-04-25T00:04:44;1.43;;;1.23;;
12383;SDS011;6256;63.808;20.336;2023-04-25T00:07:10;1.30;;;1.20;;
12383;SDS011;6256;63.808;20.336;2023-04-25T00:09:36;1.40;;;1.30;;
12383;SDS011;6256;63.808;20.336;2023-04-25T00:12:02;0.77;;;0.77;;
12383;SDS011;6256;63.808;20.336;2023-04-25T00:14:29;1.23;;;1.03;;
12383;SDS011;6256;63.808;20.336;2023-04-25T00:16:55;0.90;;;0.90;;
12383;SDS011;6256;63.808;20.336;2023-04-25T00:19:21;1.53;;;1.00;;
12383;SDS011;6256;63.808;20.336;2023-04-25T00:21:46;1.17;;;1.13;;
12383;SDS011;6256;63.808;20.336;2023-04-25T00:24:12;1.27;;;1.17;;
12383;SDS011;6256;63.808;20.336;2023-04-25T00:26:38;1.43;;;1.20;;
12383;SDS011;6256;63.808;20.336;2023-04-25T00:29:04;1.20;;;1.10;;
12383;SDS011;6256;63.808;20.336;2023-04-25T00:31:30;1.40;;;1.20;;
12383;SDS011;6256;63.808;20.336;2023-04-25T00:33:55;1.17;;;1.07;;
12383;SDS011;6256;63.808;20.336;2023-04-25T00:36:21;1.23;;;1.00;;
12383;SDS011;6256;63.808;20.336;2023-04-25T00:38:47;2.00;;;1.30;;
12383;SDS011;6256;63.808;20.336;2023-04-25T00:41:13;1.23;;;1.13;;
12383;SDS011;6256;63.808;20.336;2023-04-25T00:43:39;1.27;;;1.17;;
12383;SDS011;6256;63.808;20.336;2023-04-25T00:46:05;1.30;;;1.20;;
12383;SDS011;6256;63.808;20.336;2023-04-25T00:48:31;1.70;;;1.23;;
12383;SDS011;6256;63.808;20.336;2023-04-25T00:50:57;1.37;;;1.27;;
12383;SDS011;6256;63.808;20.336;2023-04-25T00:53:24;1.50;;;1.40;;
12383;SDS011;6256;63.808;20.336;2023-04-25T00:55:51;1.93;;;1.70;;
12383;SDS011;6256;63.808;20.336;2023-04-25T00:58:17;1.70;;;1.17;;
12383;SDS011;6256;63.808;20.336;2023-04-25T01:00:45;1.17;;;1.13;;
12383;SDS011;6256;63.808;20.336;2023-04-25T01:03:12;1.33;;;1.23;;
12383;SDS011;6256;63.808;20.336;2023-04-25T01:05:41;1.37;;;1.13;;
12383;SDS011;6256;63.808;20.336;2023-04-25T01:08:07;1.93;;;1.40;;
12383;SDS011;6256;63.808;20.336;2023-04-25T01:10:34;1.23;;;1.13;;
12383;SDS011;6256;63.808;20.336;2023-04-25T01:12:59;2.13;;;1.60;;
12383;SDS011;6256;63.808;20.336;2023-04-25T01:15:25;1.20;;;1.10;;
12383;SDS011;6256;63.808;20.336;2023-04-25T01:17:51;1.73;;;1.37;;
12383;SDS011;6256;63.808;20.336;2023-04-25T01:20:18;2.03;;;1.20;;
12383;SDS011;6256;63.808;20.336;2023-04-25T01:22:47;1.87;;;1.50;;
12383;SDS011;6256;63.808;20.336;2023-04-25T01:25:14;2.07;;;1.80;;
12383;SDS011;6256;63.808;20.336;2023-04-25T01:27:41;1.57;;;1.47;;
12383;SDS011;6256;63.808;20.336;2023-04-25T01:30:07;1.93;;;1.50;;
12383;SDS011;6256;63.808;20.336;2023-04-25T01:32:34;1.53;;;1.43;;
12383;SDS011;6256;63.808;20.336;2023-04-25T01:35:07;1.90;;;1.43;;
12383;SDS011;6256;63.808;20.336;2023-04-25T01:37:38;1.53;;;1.43;;
12383;SDS011;6256;63.808;20.336;2023-04-25T01:40:11;1.43;;;1.33;;
12383;SDS011;6256;63.808;20.336;2023-04-25T01:42:38;1.40;;;1.30;;
12383;SDS011;6256;63.808;20.336;2023-04-25T01:45:06;1.50;;;1.40;;
12383;SDS011;6256;63.808;20.336;2023-04-25T01:47:32;1.73;;;1.43;;
12383;SDS011;6256;63.808;20.336;2023-04-25T01:50:00;1.80;;;1.70;;
12383;SDS011;6256;63.808;20.336;2023-04-25T01:52:29;2.20;;;1.70;;
12383;SDS011;6256;63.808;20.336;2023-04-25T01:54:55;1.70;;;1.60;;
12383;SDS011;6256;63.808;20.336;2023-04-25T01:57:22;1.47;;;1.37;;
12383;SDS011;6256;63.808;20.336;2023-04-25T01:59:48;2.30;;;1.70;;
12383;SDS011;6256;63.808;20.336;2023-04-25T02:02:14;2.83;;;1.57;;
12383;SDS011;6256;63.808;20.336;2023-04-25T02:04:40;1.73;;;1.57;;
12383;SDS011;6256;63.808;20.336;2023-04-25T02:07:06;2.10;;;1.90;;
12383;SDS011;6256;63.808;20.336;2023-04-25T02:09:31;2.13;;;1.70;;
12383;SDS011;6256;63.808;20.336;2023-04-25T02:11:57;1.93;;;1.70;;
12383;SDS011;6256;63.808;20.336;2023-04-25T02:14:23;2.87;;;1.70;;
12383;SDS011;6256;63.808;20.336;2023-04-25T02:16:49;2.73;;;1.60;;
12383;SDS011;6256;63.808;20.336;2023-04-25T02:19:16;1.80;;;1.67;;
12383;SDS011;6256;63.808;20.336;2023-04-25T02:21:42;2.20;;;1.73;;
12383;SDS011;6256;63.808;20.336;2023-04-25T02:24:07;1.70;;;1.60;;
12383;SDS011;6256;63.808;20.336;2023-04-25T02:26:33;2.37;;;2.10;;
12383;SDS011;6256;63.808;20.336;2023-04-25T02:28:59;1.70;;;1.60;;
12383;SDS011;6256;63.808;20.336;2023-04-25T02:31:26;2.43;;;1.60;;
12383;SDS011;6256;63.808;20.336;2023-04-25T02:33:51;2.03;;;1.80;;
12383;SDS011;6256;63.808;20.336;2023-04-25T02:36:17;2.60;;;1.90;;
12383;SDS011;6256;63.808;20.336;2023-04-25T02:38:43;3.57;;;1.53;;
12383;SDS011;6256;63.808;20.336;2023-04-25T02:41:08;1.93;;;1.70;;
12383;SDS011;6256;63.808;20.336;2023-04-25T02:43:34;2.17;;;1.97;;
12383;SDS011;6256;63.808;20.336;2023-04-25T02:46:01;3.20;;;1.90;;
12383;SDS011;6256;63.808;20.336;2023-04-25T02:48:26;2.03;;;1.90;;
12383;SDS011;6256;63.808;20.336;2023-04-25T02:50:53;2.40;;;2.20;;
12383;SDS011;6256;63.808;20.336;2023-04-25T02:53:19;2.60;;;2.40;;
12383;SDS011;6256;63.808;20.336;2023-04-25T02:55:44;3.67;;;1.83;;
12383;SDS011;6256;63.808;20.336;2023-04-25T02:58:10;2.03;;;1.83;;
12383;SDS011;6256;63.808;20.336;2023-04-25T03:00:36;3.07;;;2.03;;
12383;SDS011;6256;63.808;20.336;2023-04-25T03:03:08;2.33;;;2.03;;
12383;SDS011;6256;63.808;20.336;2023-04-25T03:05:33;2.63;;;1.90;;
12383;SDS011;6256;63.808;20.336;2023-04-25T03:07:59;1.93;;;1.73;;
12383;SDS011;6256;63.808;20.336;2023-04-25T03:10:25;2.40;;;1.57;;
12383;SDS011;6256;63.808;20.336;2023-04-25T03:12:51;2.10;;;2.00;;
12383;SDS011;6256;63.808;20.336;2023-04-25T03:15:17;1.73;;;1.43;;
12383;SDS011;6256;63.808;20.336;2023-04-25T03:17:43;3.37;;;1.80;;
12383;SDS011;6256;63.808;20.336;2023-04-25T03:20:09;1.90;;;1.73;;
12383;SDS011;6256;63.808;20.336;2023-04-25T03:22:35;1.87;;;1.77;;
12383;SDS011;6256;63.808;20.336;2023-04-25T03:25:01;3.27;;;2.13;;
12383;SDS011;6256;63.808;20.336;2023-04-25T03:27:27;2.47;;;1.70;;
12383;SDS011;6256;63.808;20.336;2023-04-25T03:29:53;1.90;;;1.80;;
12383;SDS011;6256;63.808;20.336;2023-04-25T03:32:19;2.00;;;1.73;;
12383;SDS011;6256;63.808;20.336;2023-04-25T03:34:45;2.27;;;2.07;;
12383;SDS011;6256;63.808;20.336;2023-04-25T03:37:10;1.87;;;1.67;;
12383;SDS011;6256;63.808;20.336;2023-04-25T03:39:36;3.57;;;1.80;;
12383;SDS011;6256;63.808;20.336;2023-04-25T03:42:03;1.70;;;1.60;;
12383;SDS011;6256;63.808;20.336;2023-04-25T03:44:29;3.00;;;1.60;;
12383;SDS011;6256;63.808;20.336;2023-04-25T03:46:55;2.27;;;1.87;;
12383;SDS011;6256;63.808;20.336;2023-04-25T03:49:20;1.93;;;1.70;;
12383;SDS011;6256;63.808;20.336;2023-04-25T03:51:46;2.00;;;1.80;;
12383;SDS011;6256;63.808;20.336;2023-04-25T03:54:12;2.53;;;2.33;;
12383;SDS011;6256;63.808;20.336;2023-04-25T03:56:37;2.17;;;1.87;;
12383;SDS011;6256;63.808;20.336;2023-04-25T03:59:03;1.80;;;1.70;;
12383;SDS011;6256;63.808;20.336;2023-04-25T04:01:29;2.90;;;1.73;;
12383;SDS011;6256;63.808;20.336;2023-04-25T04:03:54;2.10;;;1.90;;
12383;SDS011;6256;63.808;20.336;2023-04-25T04:06:20;2.60;;;2.07;;
12383;SDS011;6256;63.808;20.336;2023-04-25T04:08:46;1.80;;;1.70;;
12383;SDS011;6256;63.808;20.336;2023-04-25T04:11:12;1.73;;;1.63;;
12383;SDS011;6256;63.808;20.336;2023-04-25T04:13:38;2.50;;;2.03;;
12383;SDS011;6256;63.808;20.336;2023-04-25T04:16:03;2.97;;;2.27;;
12383;SDS011;6256;63.808;20.336;2023-04-25T04:18:29;2.20;;;1.57;;
12383;SDS011;6256;63.808;20.336;2023-04-25T04:20:55;1.87;;;1.70;;
12383;SDS011;6256;63.808;20.336;2023-04-25T04:23:23;1.90;;;1.80;;
12383;SDS011;6256;63.808;20.336;2023-04-25T04:25:48;3.23;;;2.10;;
12383;SDS011;6256;63.808;20.336;2023-04-25T04:28:14;1.70;;;1.50;;
12383;SDS011;6256;63.808;20.336;2023-04-25T04:30:41;1.60;;;1.50;;
12383;SDS011;6256;63.808;20.336;2023-04-25T04:33:07;2.83;;;1.70;;
12383;SDS011;6256;63.808;20.336;2023-04-25T04:35:34;1.67;;;1.50;;
12383;SDS011;6256;63.808;20.336;2023-04-25T04:37:59;1.93;;;1.60;;
12383;SDS011;6256;63.808;20.336;2023-04-25T04:40:25;2.00;;;1.90;;
12383;SDS011;6256;63.808;20.336;2023-04-25T04:42:51;2.23;;;1.70;;
12383;SDS011;6256;63.808;20.336;2023-04-25T04:45:18;2.33;;;2.00;;
12383;SDS011;6256;63.808;20.336;2023-04-25T04:47:44;1.83;;;1.70;;
12383;SDS011;6256;63.808;20.336;2023-04-25T04:50:11;1.53;;;1.40;;
12383;SDS011;6256;63.808;20.336;2023-04-25T04:52:37;1.70;;;1.60;;
12383;SDS011;6256;63.808;20.336;2023-04-25T04:55:04;1.60;;;1.50;;
12383;SDS011;6256;63.808;20.336;2023-04-25T04:57:30;2.10;;;1.60;;
12383;SDS011;6256;63.808;20.336;2023-04-25T04:59:58;1.67;;;1.53;;
12383;SDS011;6256;63.808;20.336;2023-04-25T05:02:24;2.23;;;1.77;;
12383;SDS011;6256;63.808;20.336;2023-04-25T05:04:50;1.93;;;1.77;;
12383;SDS011;6256;63.808;20.336;2023-04-25T05:07:16;1.73;;;1.63;;
12383;SDS011;6256;63.808;20.336;2023-04-25T05:09:43;1.97;;;1.60;;
12383;SDS011;6256;63.808;20.336;2023-04-25T05:12:08;2.93;;;1.73;;
12383;SDS011;6256;63.808;20.336;2023-04-25T05:14:34;1.70;;;1.60;;
12383;SDS011;6256;63.808;20.336;2023-04-25T05:17:00;1.80;;;1.60;;
12383;SDS011;6256;63.808;20.336;2023-04-25T05:19:26;1.77;;;1.37;;
12383;SDS011;6256;63.808;20.336;2023-04-25T05:21:52;2.17;;;1.77;;
12383;SDS011;6256;63.808;20.336;2023-04-25T05:24:18;1.43;;;1.33;;
12383;SDS011;6256;63.808;20.336;2023-04-25T05:26:44;1.80;;;1.50;;
12383;SDS011;6256;63.808;20.336;2023-04-25T05:29:09;1.53;;;1.43;;
12383;SDS011;6256;63.808;20.336;2023-04-25T05:31:35;1.87;;;1.57;;
12383;SDS011;6256;63.808;20.336;2023-04-25T05:34:02;1.27;;;1.17;;
12383;SDS011;6256;63.808;20.336;2023-04-25T05:36:27;1.80;;;1.70;;
12383;SDS011;6256;63.808;20.336;2023-04-25T05:38:53;1.47;;;1.37;;
12383;SDS011;6256;63.808;20.336;2023-04-25T05:41:19;2.97;;;1.50;;
12383;SDS011;6256;63.808;20.336;2023-04-25T05:43:45;1.40;;;1.30;;
12383;SDS011;6256;63.808;20.336;2023-04-25T05:46:13;1.33;;;1.23;;
12383;SDS011;6256;63.808;20.336;2023-04-25T05:48:39;2.27;;;1.83;;
12383;SDS011;6256;63.808;20.336;2023-04-25T05:51:05;1.73;;;1.50;;
12383;SDS011;6256;63.808;20.336;2023-04-25T05:53:30;4.33;;;1.50;;
12383;SDS011;6256;63.808;20.336;2023-04-25T05:55:56;1.57;;;1.47;;
12383;SDS011;6256;63.808;20.336;2023-04-25T05:58:22;2.80;;;1.60;;
12383;SDS011;6256;63.808;20.336;2023-04-25T06:00:47;2.40;;;1.47;;
12383;SDS011;6256;63.808;20.336;2023-04-25T06:03:13;3.23;;;1.63;;
12383;SDS011;6256;63.808;20.336;2023-04-25T06:05:42;3.07;;;1.13;;
12383;SDS011;6256;63.808;20.336;2023-04-25T06:08:08;1.60;;;1.50;;
12383;SDS011;6256;63.808;20.336;2023-04-25T06:10:34;2.17;;;1.47;;
12383;SDS011;6256;63.808;20.336;2023-04-25T06:13:00;2.40;;;1.93;;
12383;SDS011;6256;63.808;20.336;2023-04-25T06:15:26;5.30;;;1.43;;
12383;SDS011;6256;63.808;20.336;2023-04-25T06:17:52;3.60;;;1.20;;
12383;SDS011;6256;63.808;20.336;2023-04-25T06:20:18;1.87;;;1.40;;
12383;SDS011;6256;63.808;20.336;2023-04-25T06:22:48;1.60;;;1.50;;
12383;SDS011;6256;63.808;20.336;2023-04-25T06:25:14;1.47;;;1.37;;
12383;SDS011;6256;63.808;20.336;2023-04-25T06:27:40;1.50;;;1.30;;
12383;SDS011;6256;63.808;20.336;2023-04-25T06:30:06;1.73;;;1.33;;
12383;SDS011;6256;63.808;20.336;2023-04-25T06:32:32;1.30;;;1.20;;
12383;SDS011;6256;63.808;20.336;2023-04-25T06:34:59;3.80;;;1.40;;
12383;SDS011;6256;63.808;20.336;2023-04-25T06:37:25;1.50;;;1.40;;
12383;SDS011;6256;63.808;20.336;2023-04-25T06:39:50;1.60;;;1.50;;
12383;SDS011;6256;63.808;20.336;2023-04-25T06:42:16;1.83;;;1.30;;
12383;SDS011;6256;63.808;20.336;2023-04-25T06:44:42;1.40;;;1.30;;
12383;SDS011;6256;63.808;20.336;2023-04-25T06:47:07;1.27;;;1.17;;
12383;SDS011;6256;63.808;20.336;2023-04-25T06:49:33;1.40;;;1.30;;
12383;SDS011;6256;63.808;20.336;2023-04-25T06:51:59;1.40;;;1.30;;
12383;SDS011;6256;63.808;20.336;2023-04-25T06:54:24;1.57;;;1.40;;
12383;SDS011;6256;63.808;20.336;2023-04-25T06:56:52;1.80;;;1.33;;
12383;SDS011;6256;63.808;20.336;2023-04-25T06:59:18;1.60;;;1.50;;
12383;SDS011;6256;63.808;20.336;2023-04-25T07:01:44;2.23;;;1.30;;
12383;SDS011;6256;63.808;20.336;2023-04-25T07:04:10;2.90;;;1.47;;
12383;SDS011;6256;63.808;20.336;2023-04-25T07:06:36;1.70;;;1.30;;
12383;SDS011;6256;63.808;20.336;2023-04-25T07:09:07;1.67;;;1.57;;
12383;SDS011;6256;63.808;20.336;2023-04-25T07:11:34;1.40;;;1.23;;
12383;SDS011;6256;63.808;20.336;2023-04-25T07:14:00;1.60;;;1.50;;
12383;SDS011;6256;63.808;20.336;2023-04-25T07:16:27;1.60;;;1.50;;
12383;SDS011;6256;63.808;20.336;2023-04-25T07:18:53;2.13;;;1.53;;
12383;SDS011;6256;63.808;20.336;2023-04-25T07:21:19;1.63;;;1.50;;
12383;SDS011;6256;63.808;20.336;2023-04-25T07:23:44;1.40;;;1.30;;
12383;SDS011;6256;63.808;20.336;2023-04-25T07:26:10;2.37;;;1.53;;
12383;SDS011;6256;63.808;20.336;2023-04-25T07:28:36;1.73;;;1.63;;
12383;SDS011;6256;63.808;20.336;2023-04-25T07:31:02;2.13;;;1.57;;
12383;SDS011;6256;63.808;20.336;2023-04-25T07:33:28;2.13;;;1.63;;
12383;SDS011;6256;63.808;20.336;2023-04-25T07:35:54;2.97;;;1.70;;
12383;SDS011;6256;63.808;20.336;2023-04-25T07:38:21;1.97;;;1.77;;
12383;SDS011;6256;63.808;20.336;2023-04-25T07:40:49;1.70;;;1.60;;
12383;SDS011;6256;63.808;20.336;2023-04-25T07:43:15;1.50;;;1.40;;
12383;SDS011;6256;63.808;20.336;2023-04-25T07:45:45;2.20;;;2.00;;
12383;SDS011;6256;63.808;20.336;2023-04-25T07:48:11;2.13;;;1.93;;
12383;SDS011;6256;63.808;20.336;2023-04-25T07:50:41;2.13;;;1.83;;
12383;SDS011;6256;63.808;20.336;2023-04-25T07:53:07;2.33;;;1.67;;
12383;SDS011;6256;63.808;20.336;2023-04-25T07:55:33;2.20;;;1.70;;
12383;SDS011;6256;63.808;20.336;2023-04-25T07:57:59;2.03;;;1.63;;
12383;SDS011;6256;63.808;20.336;2023-04-25T08:00:25;3.67;;;1.67;;
12383;SDS011;6256;63.808;20.336;2023-04-25T08:02:50;1.67;;;1.57;;
12383;SDS011;6256;63.808;20.336;2023-04-25T08:05:16;1.77;;;1.67;;
12383;SDS011;6256;63.808;20.336;2023-04-25T08:07:42;2.00;;;1.37;;
12383;SDS011;6256;63.808;20.336;2023-04-25T08:10:08;2.53;;;1.57;;
12383;SDS011;6256;63.808;20.336;2023-04-25T08:12:34;4.07;;;1.50;;
12383;SDS011;6256;63.808;20.336;2023-04-25T08:15:00;1.30;;;1.20;;
12383;SDS011;6256;63.808;20.336;2023-04-25T08:17:26;1.83;;;1.57;;
12383;SDS011;6256;63.808;20.336;2023-04-25T08:19:52;1.63;;;1.50;;
12383;SDS011;6256;63.808;20.336;2023-04-25T08:22:18;1.73;;;1.53;;
12383;SDS011;6256;63.808;20.336;2023-04-25T08:24:43;2.90;;;1.70;;
12383;SDS011;6256;63.808;20.336;2023-04-25T08:27:09;2.20;;;1.30;;
12383;SDS011;6256;63.808;20.336;2023-04-25T08:29:36;2.70;;;1.37;;
12383;SDS011;6256;63.808;20.336;2023-04-25T08:32:01;2.20;;;1.57;;
12383;SDS011;6256;63.808;20.336;2023-04-25T08:34:27;1.60;;;1.30;;
12383;SDS011;6256;63.808;20.336;2023-04-25T08:36:53;3.33;;;1.60;;
12383;SDS011;6256;63.808;20.336;2023-04-25T08:39:19;2.93;;;1.70;;
12383;SDS011;6256;63.808;20.336;2023-04-25T08:41:45;2.53;;;1.50;;
12383;SDS011;6256;63.808;20.336;2023-04-25T08:44:11;1.97;;;1.40;;
12383;SDS011;6256;63.808;20.336;2023-04-25T08:46:38;1.77;;;1.20;;
12383;SDS011;6256;63.808;20.336;2023-04-25T08:49:08;2.37;;;1.80;;
12383;SDS011;6256;63.808;20.336;2023-04-25T08:51:34;2.57;;;1.60;;
12383;SDS011;6256;63.808;20.336;2023-04-25T08:54:09;1.70;;;1.60;;
12383;SDS011;6256;63.808;20.336;2023-04-25T08:56:37;2.70;;;1.67;;
12383;SDS011;6256;63.808;20.336;2023-04-25T08:59:05;1.53;;;1.43;;
12383;SDS011;6256;63.808;20.336;2023-04-25T09:01:33;2.30;;;1.63;;
12383;SDS011;6256;63.808;20.336;2023-04-25T09:04:00;2.67;;;1.77;;
12383;SDS011;6256;63.808;20.336;2023-04-25T09:06:27;1.90;;;1.80;;
12383;SDS011;6256;63.808;20.336;2023-04-25T09:09:06;2.70;;;1.73;;
12383;SDS011;6256;63.808;20.336;2023-04-25T09:11:35;2.20;;;1.70;;
12383;SDS011;6256;63.808;20.336;2023-04-25T09:14:14;2.43;;;1.93;;
12383;SDS011;6256;63.808;20.336;2023-04-25T09:16:58;2.80;;;1.93;;
12383;SDS011;6256;63.808;20.336;2023-04-25T09:21:58;3.03;;;2.50;;
12383;SDS011;6256;63.808;20.336;2023-04-25T09:24:39;2.83;;;2.37;;
12383;SDS011;6256;63.808;20.336;2023-04-25T09:27:27;3.20;;;2.30;;
12383;SDS011;6256;63.808;20.336;2023-04-25T09:29:56;4.57;;;2.57;;
12383;SDS011;6256;63.808;20.336;2023-04-25T09:32:25;3.50;;;2.20;;
12383;SDS011;6256;63.808;20.336;2023-04-25T09:34:51;3.33;;;2.10;;
12383;SDS011;6256;63.808;20.336;2023-04-25T09:37:24;4.03;;;2.53;;
12383;SDS011;6256;63.808;20.336;2023-04-25T09:39:55;2.87;;;2.50;;
12383;SDS011;6256;63.808;20.336;2023-04-25T09:42:27;3.27;;;1.97;;
12383;SDS011;6256;63.808;20.336;2023-04-25T09:44:54;4.50;;;2.87;;
12383;SDS011;6256;63.808;20.336;2023-04-25T09:47:22;4.80;;;3.10;;
12383;SDS011;6256;63.808;20.336;2023-04-25T09:49:49;4.23;;;2.40;;
12383;SDS011;6256;63.808;20.336;2023-04-25T09:52:17;4.47;;;2.83;;
12383;SDS011;6256;63.808;20.336;2023-04-25T09:54:45;6.00;;;2.97;;
12383;SDS011;6256;63.808;20.336;2023-04-25T09:57:12;4.73;;;2.77;;
12383;SDS011;6256;63.808;20.336;2023-04-25T09:59:42;2.63;;;2.07;;
12383;SDS011;6256;63.808;20.336;2023-04-25T10:02:13;5.33;;;3.13;;
12383;SDS011;6256;63.808;20.336;2023-04-25T10:04:40;5.93;;;3.37;;
12383;SDS011;6256;63.808;20.336;2023-04-25T10:07:12;4.40;;;3.23;;
12383;SDS011;6256;63.808;20.336;2023-04-25T10:09:38;4.90;;;3.03;;
12383;SDS011;6256;63.808;20.336;2023-04-25T10:12:05;3.03;;;2.67;;
12383;SDS011;6256;63.808;20.336;2023-04-25T10:14:34;5.30;;;3.03;;
12383;SDS011;6256;63.808;20.336;2023-04-25T10:17:00;4.73;;;3.20;;
12383;SDS011;6256;63.808;20.336;2023-04-25T10:19:26;3.80;;;2.77;;
12383;SDS011;6256;63.808;20.336;2023-04-25T10:21:54;3.47;;;2.63;;
12383;SDS011;6256;63.808;20.336;2023-04-25T10:24:21;2.83;;;2.53;;
12383;SDS011;6256;63.808;20.336;2023-04-25T10:26:47;3.93;;;2.50;;
12383;SDS011;6256;63.808;20.336;2023-04-25T10:29:21;4.13;;;2.67;;
12383;SDS011;6256;63.808;20.336;2023-04-25T10:31:50;5.27;;;3.37;;
12383;SDS011;6256;63.808;20.336;2023-04-25T10:34:16;3.63;;;2.43;;
12383;SDS011;6256;63.808;20.336;2023-04-25T10:36:43;4.60;;;2.73;;
12383;SDS011;6256;63.808;20.336;2023-04-25T10:39:21;4.27;;;2.90;;
12383;SDS011;6256;63.808;20.336;2023-04-25T10:41:57;4.57;;;2.87;;
12383;SDS011;6256;63.808;20.336;2023-04-25T10:44:27;2.50;;;2.13;;
12383;SDS011;6256;63.808;20.336;2023-04-25T10:46:55;3.70;;;2.17;;
12383;SDS011;6256;63.808;20.336;2023-04-25T10:49:33;2.27;;;1.80;;
12383;SDS011;6256;63.808;20.336;2023-04-25T10:54:54;3.03;;;2.57;;
12383;SDS011;6256;63.808;20.336;2023-04-25T11:00:17;3.73;;;2.40;;
12383;SDS011;6256;63.808;20.336;2023-04-25T11:03:02;5.67;;;2.40;;
12383;SDS011;6256;63.808;20.336;2023-04-25T11:05:35;3.80;;;2.27;;
12383;SDS011;6256;63.808;20.336;2023-04-25T11:08:01;4.50;;;2.57;;
12383;SDS011;6256;63.808;20.336;2023-04-25T11:10:32;2.60;;;2.40;;
12383;SDS011;6256;63.808;20.336;2023-04-25T11:13:01;2.63;;;2.17;;
12383;SDS011;6256;63.808;20.336;2023-04-25T11:15:27;2.20;;;2.00;;
12383;SDS011;6256;63.808;20.336;2023-04-25T11:17:53;4.07;;;3.17;;
12383;SDS011;6256;63.808;20.336;2023-04-25T11:20:20;5.20;;;2.73;;
12383;SDS011;6256;63.808;20.336;2023-04-25T11:22:47;2.30;;;2.00;;
12383;SDS011;6256;63.808;20.336;2023-04-25T11:25:13;2.97;;;2.17;;
12383;SDS011;6256;63.808;20.336;2023-04-25T11:27:51;3.50;;;2.43;;
12383;SDS011;6256;63.808;20.336;2023-04-25T11:30:25;4.40;;;2.70;;
12383;SDS011;6256;63.808;20.336;2023-04-25T11:32:51;3.30;;;2.20;;
12383;SDS011;6256;63.808;20.336;2023-04-25T11:35:18;2.47;;;2.17;;
12383;SDS011;6256;63.808;20.336;2023-04-25T11:37:45;4.23;;;2.70;;
12383;SDS011;6256;63.808;20.336;2023-04-25T11:40:11;3.43;;;2.07;;
12383;SDS011;6256;63.808;20.336;2023-04-25T11:42:37;3.90;;;2.40;;
12383;SDS011;6256;63.808;20.336;2023-04-25T11:45:04;5.37;;;2.10;;
12383;SDS011;6256;63.808;20.336;2023-04-25T11:47:31;2.87;;;2.30;;
12383;SDS011;6256;63.808;20.336;2023-04-25T11:50:00;4.43;;;1.80;;
12383;SDS011;6256;63.808;20.336;2023-04-25T11:52:46;3.63;;;2.23;;
12383;SDS011;6256;63.808;20.336;2023-04-25T11:55:16;2.33;;;2.07;;
12383;SDS011;6256;63.808;20.336;2023-04-25T11:57:44;3.60;;;2.57;;
12383;SDS011;6256;63.808;20.336;2023-04-25T12:00:16;3.43;;;2.13;;
12383;SDS011;6256;63.808;20.336;2023-04-25T12:02:44;2.23;;;2.03;;
12383;SDS011;6256;63.808;20.336;2023-04-25T12:05:11;5.03;;;2.87;;
12383;SDS011;6256;63.808;20.336;2023-04-25T12:07:38;2.97;;;2.30;;
12383;SDS011;6256;63.808;20.336;2023-04-25T12:10:04;2.60;;;2.37;;
12383;SDS011;6256;63.808;20.336;2023-04-25T12:12:33;5.10;;;3.00;;
12383;SDS011;6256;63.808;20.336;2023-04-25T12:15:12;4.93;;;2.93;;
12383;SDS011;6256;63.808;20.336;2023-04-25T12:17:48;4.83;;;2.70;;
12383;SDS011;6256;63.808;20.336;2023-04-25T12:20:16;6.23;;;3.03;;
12383;SDS011;6256;63.808;20.336;2023-04-25T12:22:45;2.93;;;2.50;;
12383;SDS011;6256;63.808;20.336;2023-04-25T12:25:12;3.60;;;2.70;;
12383;SDS011;6256;63.808;20.336;2023-04-25T12:28:17;4.80;;;2.13;;
12383;SDS011;6256;63.808;20.336;2023-04-25T12:30:52;5.60;;;2.90;;
12383;SDS011;6256;63.808;20.336;2023-04-25T12:33:35;3.90;;;2.33;;
12383;SDS011;6256;63.808;20.336;2023-04-25T12:36:02;4.57;;;2.67;;
12383;SDS011;6256;63.808;20.336;2023-04-25T12:38:35;3.40;;;2.63;;
12383;SDS011;6256;63.808;20.336;2023-04-25T12:41:03;3.57;;;2.50;;
12383;SDS011;6256;63.808;20.336;2023-04-25T12:43:28;4.47;;;2.63;;
12383;SDS011;6256;63.808;20.336;2023-04-25T12:45:55;4.00;;;2.57;;
12383;SDS011;6256;63.808;20.336;2023-04-25T12:48:21;4.90;;;3.30;;
12383;SDS011;6256;63.808;20.336;2023-04-25T12:50:48;4.73;;;3.43;;
12383;SDS011;6256;63.808;20.336;2023-04-25T12:53:22;6.57;;;3.83;;
12383;SDS011;6256;63.808;20.336;2023-04-25T12:55:49;3.20;;;2.17;;
12383;SDS011;6256;63.808;20.336;2023-04-25T12:58:16;3.37;;;2.70;;
12383;SDS011;6256;63.808;20.336;2023-04-25T13:00:43;3.20;;;2.83;;
12383;SDS011;6256;63.808;20.336;2023-04-25T13:03:09;4.17;;;2.43;;
12383;SDS011;6256;63.808;20.336;2023-04-25T13:05:36;3.27;;;2.63;;
12383;SDS011;6256;63.808;20.336;2023-04-25T13:08:05;4.67;;;3.17;;
12383;SDS011;6256;63.808;20.336;2023-04-25T13:10:30;4.53;;;2.10;;
12383;SDS011;6256;63.808;20.336;2023-04-25T13:12:58;3.90;;;2.37;;
12383;SDS011;6256;63.808;20.336;2023-04-25T13:15:24;3.03;;;2.20;;
12383;SDS011;6256;63.808;20.336;2023-04-25T13:17:50;2.07;;;1.87;;
12383;SDS011;6256;63.808;20.336;2023-04-25T13:20:16;2.67;;;2.30;;
12383;SDS011;6256;63.808;20.336;2023-04-25T13:22:43;2.37;;;1.70;;
12383;SDS011;6256;63.808;20.336;2023-04-25T13:25:10;4.10;;;1.67;;
12383;SDS011;6256;63.808;20.336;2023-04-25T13:27:36;3.00;;;1.90;;
12383;SDS011;6256;63.808;20.336;2023-04-25T13:30:04;3.00;;;1.90;;
12383;SDS011;6256;63.808;20.336;2023-04-25T13:32:36;2.60;;;1.80;;
12383;SDS011;6256;63.808;20.336;2023-04-25T13:35:02;2.07;;;1.67;;
12383;SDS011;6256;63.808;20.336;2023-04-25T13:37:29;2.93;;;1.90;;
12383;SDS011;6256;63.808;20.336;2023-04-25T13:39:57;1.93;;;1.63;;
12383;SDS011;6256;63.808;20.336;2023-04-25T13:42:26;2.97;;;1.73;;
12383;SDS011;6256;63.808;20.336;2023-04-25T13:44:51;1.20;;;1.10;;
12383;SDS011;6256;63.808;20.336;2023-04-25T13:47:17;1.90;;;1.70;;
12383;SDS011;6256;63.808;20.336;2023-04-25T13:49:43;3.13;;;1.70;;
12383;SDS011;6256;63.808;20.336;2023-04-25T13:52:08;1.47;;;1.37;;
12383;SDS011;6256;63.808;20.336;2023-04-25T13:54:34;1.47;;;1.37;;
12383;SDS011;6256;63.808;20.336;2023-04-25T13:57:00;2.50;;;1.40;;
12383;SDS011;6256;63.808;20.336;2023-04-25T13:59:26;1.77;;;1.40;;
12383;SDS011;6256;63.808;20.336;2023-04-25T14:01:52;2.23;;;1.40;;
12383;SDS011;6256;63.808;20.336;2023-04-25T14:04:18;1.83;;;1.63;;
12383;SDS011;6256;63.808;20.336;2023-04-25T14:06:44;2.07;;;1.40;;
12383;SDS011;6256;63.808;20.336;2023-04-25T14:09:10;2.20;;;1.70;;
12383;SDS011;6256;63.808;20.336;2023-04-25T14:11:37;2.47;;;2.07;;
12383;SDS011;6256;63.808;20.336;2023-04-25T14:14:03;3.23;;;1.43;;
12383;SDS011;6256;63.808;20.336;2023-04-25T14:16:29;2.37;;;1.53;;
12383;SDS011;6256;63.808;20.336;2023-04-25T14:18:57;2.23;;;1.80;;
12383;SDS011;6256;63.808;20.336;2023-04-25T14:21:23;2.70;;;1.87;;
12383;SDS011;6256;63.808;20.336;2023-04-25T14:23:49;2.53;;;1.60;;
12383;SDS011;6256;63.808;20.336;2023-04-25T14:26:15;2.30;;;1.57;;
12383;SDS011;6256;63.808;20.336;2023-04-25T14:28:41;2.90;;;1.70;;
12383;SDS011;6256;63.808;20.336;2023-04-25T14:31:07;2.03;;;1.83;;
12383;SDS011;6256;63.808;20.336;2023-04-25T14:33:32;2.37;;;1.80;;
12383;SDS011;6256;63.808;20.336;2023-04-25T14:35:59;1.70;;;1.47;;
12383;SDS011;6256;63.808;20.336;2023-04-25T14:38:24;3.17;;;1.73;;
12383;SDS011;6256;63.808;20.336;2023-04-25T14:40:50;2.47;;;1.87;;
12383;SDS011;6256;63.808;20.336;2023-04-25T14:43:16;1.93;;;1.40;;
12383;SDS011;6256;63.808;20.336;2023-04-25T14:45:42;2.23;;;1.80;;
12383;SDS011;6256;63.808;20.336;2023-04-25T14:48:08;1.80;;;1.50;;
12383;SDS011;6256;63.808;20.336;2023-04-25T14:50:34;3.47;;;1.97;;
12383;SDS011;6256;63.808;20.336;2023-04-25T14:53:00;2.90;;;1.50;;
12383;SDS011;6256;63.808;20.336;2023-04-25T14:55:26;3.00;;;1.90;;
12383;SDS011;6256;63.808;20.336;2023-04-25T14:57:53;1.57;;;1.47;;